createdAt,value
2023-02-25T00:00:34.284Z,5.70
2023-02-25T00:03:01.758Z,5.70
2023-02-25T00:05:31.686Z,5.80
2023-02-25T00:07:59.567Z,5.70
2023-02-25T00:10:26.578Z,5.80
2023-02-25T00:12:53.366Z,5.80
2023-02-25T00:15:20.497Z,5.90
2023-02-25T00:17:49.710Z,6.00
2023-02-25T00:20:17.317Z,6.10
2023-02-25T00:22:44.054Z,6.10
2023-02-25T00:25:10.840Z,6.20
2023-02-25T00:27:37.863Z,6.20
2023-02-25T00:30:05.571Z,6.20
2023-02-25T00:32:32.608Z,6.00
2023-02-25T00:34:59.432Z,5.80
2023-02-25T00:37:26.247Z,5.80
2023-02-25T00:39:52.911Z,5.70
2023-02-25T00:42:19.874Z,5.60
2023-02-25T00:44:48.495Z,5.60
2023-02-25T00:47:17.609Z,5.60
2023-02-25T00:49:49.126Z,5.60
2023-02-25T00:52:16.235Z,5.60
2023-02-25T00:54:43.129Z,5.60
2023-02-25T00:57:10.141Z,5.60
2023-02-25T00:59:37.002Z,5.40
2023-02-25T01:02:04.532Z,5.30
2023-02-25T01:04:31.553Z,5.10
2023-02-25T01:06:59.266Z,5.10
2023-02-25T01:09:26.552Z,5.00
2023-02-25T01:11:53.339Z,4.90
2023-02-25T01:14:23.887Z,4.90
2023-02-25T01:16:52.327Z,4.80
2023-02-25T01:19:21.924Z,4.80
2023-02-25T01:21:52.190Z,4.80
2023-02-25T01:24:30.696Z,4.80
2023-02-25T01:27:01.127Z,4.90
2023-02-25T01:29:31.391Z,4.80
2023-02-25T01:32:01.056Z,4.80
2023-02-25T01:34:28.944Z,4.80
2023-02-25T01:36:56.529Z,4.80
2023-02-25T01:39:26.540Z,4.80
2023-02-25T01:41:55.442Z,4.90
2023-02-25T01:44:33.405Z,4.90
2023-02-25T01:47:01.364Z,4.90
2023-02-25T01:49:41.442Z,5.10
2023-02-25T01:52:12.501Z,5.30
2023-02-25T01:54:39.947Z,5.40
2023-02-25T01:57:09.703Z,5.60
2023-02-25T01:59:39.513Z,5.60
2023-02-25T02:02:09.085Z,5.70
2023-02-25T02:04:37.778Z,5.70
2023-02-25T02:07:04.512Z,5.70
2023-02-25T02:09:31.962Z,5.70
2023-02-25T02:12:01.657Z,5.70
2023-02-25T02:14:34.201Z,5.70
2023-02-25T02:17:16.021Z,5.70
2023-02-25T02:19:51.598Z,5.70
2023-02-25T02:22:35.839Z,5.70
2023-02-25T02:25:40.203Z,5.80
2023-02-25T02:28:44.686Z,5.70
2023-02-25T02:31:29.258Z,5.80
2023-02-25T02:34:12.074Z,5.80
2023-02-25T02:37:01.872Z,5.80
2023-02-25T02:39:48.160Z,5.80
2023-02-25T02:42:27.622Z,5.80
2023-02-25T02:45:16.382Z,5.80
2023-02-25T02:47:49.607Z,5.80
2023-02-25T02:50:28.699Z,5.80
2023-02-25T02:52:59.549Z,5.80
2023-02-25T02:55:32.405Z,5.80
2023-02-25T02:58:09.461Z,5.80
2023-02-25T03:00:40.997Z,5.80
2023-02-25T03:03:22.797Z,5.80
2023-02-25T03:05:53.166Z,5.80
2023-02-25T03:08:25.495Z,5.80
2023-02-25T03:10:52.566Z,5.80
2023-02-25T03:13:21.420Z,5.80
2023-02-25T03:15:50.953Z,5.80
2023-02-25T03:18:39.339Z,5.90
2023-02-25T03:21:14.667Z,5.90
2023-02-25T03:23:44.325Z,5.90
2023-02-25T03:26:28.298Z,5.90
2023-02-25T03:29:00.358Z,5.90
2023-02-25T03:31:45.737Z,5.90
2023-02-25T03:34:22.493Z,5.90
2023-02-25T03:37:06.581Z,5.90
2023-02-25T03:39:42.502Z,6.00
2023-02-25T03:42:13.985Z,6.00
2023-02-25T03:44:51.160Z,6.00
2023-02-25T03:47:20.703Z,6.00
2023-02-25T03:49:59.063Z,6.00
2023-02-25T03:52:27.989Z,6.00
2023-02-25T03:54:59.451Z,6.00
2023-02-25T03:57:36.201Z,6.10
2023-02-25T04:00:15.511Z,6.10
2023-02-25T04:02:43.364Z,6.00
2023-02-25T04:05:10.832Z,6.00
2023-02-25T04:07:38.009Z,5.90
2023-02-25T04:10:06.789Z,5.90
2023-02-25T04:12:34.318Z,5.90
2023-02-25T04:15:01.185Z,5.80
2023-02-25T04:17:28.102Z,5.80
2023-02-25T04:19:54.852Z,5.80
2023-02-25T04:22:21.635Z,5.80
2023-02-25T04:24:48.492Z,5.80
2023-02-25T04:27:15.644Z,5.80
2023-02-25T04:29:43.172Z,5.80
2023-02-25T04:32:11.019Z,5.80
2023-02-25T04:34:38.000Z,5.80
2023-02-25T04:37:05.148Z,5.80
2023-02-25T04:39:32.868Z,5.80
2023-02-25T04:42:00.067Z,5.80
2023-02-25T04:44:26.902Z,5.80
2023-02-25T04:46:53.802Z,5.80
2023-02-25T04:49:22.070Z,5.80
2023-02-25T04:51:51.310Z,5.90
2023-02-25T04:54:21.493Z,5.90
2023-02-25T04:56:48.550Z,5.90
2023-02-25T04:59:16.048Z,6.00
2023-02-25T05:01:43.471Z,6.00
2023-02-25T05:04:10.288Z,6.00
2023-02-25T05:06:37.091Z,5.90
2023-02-25T05:09:05.430Z,5.90
2023-02-25T05:11:32.139Z,5.90
2023-02-25T05:13:59.295Z,5.90
2023-02-25T05:16:27.769Z,5.90
2023-02-25T05:18:54.802Z,5.90
2023-02-25T05:21:25.857Z,5.90
2023-02-25T05:23:54.033Z,5.90
2023-02-25T05:26:23.836Z,5.90
2023-02-25T05:28:51.816Z,5.90
2023-02-25T05:31:19.778Z,5.90
2023-02-25T05:33:46.902Z,5.80
2023-02-25T05:36:15.305Z,5.80
2023-02-25T05:38:43.056Z,5.80
2023-02-25T05:41:10.962Z,5.80
2023-02-25T05:43:39.416Z,5.70
2023-02-25T05:46:11.547Z,5.80
2023-02-25T05:48:40.337Z,5.80
2023-02-25T05:51:10.736Z,5.70
2023-02-25T05:53:38.464Z,5.70
2023-02-25T05:56:07.413Z,5.60
2023-02-25T05:58:34.710Z,5.50
2023-02-25T06:01:27.724Z,5.50
2023-02-25T06:03:58.279Z,5.50
2023-02-25T06:06:27.567Z,5.50
2023-02-25T06:08:54.627Z,5.50
2023-02-25T06:11:24.459Z,5.50
2023-02-25T06:13:53.203Z,5.50
2023-02-25T06:16:21.081Z,5.40
2023-02-25T06:18:48.673Z,5.40
2023-02-25T06:21:15.910Z,5.40
2023-02-25T06:23:44.264Z,5.40
2023-02-25T06:26:14.188Z,5.40
2023-02-25T06:28:41.876Z,5.50
2023-02-25T06:31:15.980Z,5.50
2023-02-25T06:33:43.049Z,5.50
2023-02-25T06:36:10.976Z,5.50
2023-02-25T06:38:37.826Z,5.60
2023-02-25T06:41:09.656Z,5.60
2023-02-25T06:43:38.055Z,5.60
2023-02-25T06:46:10.422Z,5.70
2023-02-25T06:48:37.354Z,5.70
2023-02-25T06:51:08.993Z,5.70
2023-02-25T06:53:40.911Z,5.70
2023-02-25T06:56:10.711Z,5.80
2023-02-25T06:58:38.316Z,5.90
2023-02-25T07:01:10.877Z,5.90
2023-02-25T07:03:38.189Z,6.00
2023-02-25T07:06:05.375Z,6.00
2023-02-25T07:08:32.599Z,6.00
2023-02-25T07:11:28.994Z,6.00
2023-02-25T07:13:55.862Z,6.00
2023-02-25T07:16:23.231Z,6.00
2023-02-25T07:18:50.862Z,5.90
2023-02-25T07:21:18.359Z,5.80
2023-02-25T07:23:46.385Z,5.80
2023-02-25T07:26:14.983Z,5.80
2023-02-25T07:28:42.670Z,5.90
2023-02-25T07:31:19.098Z,6.00
2023-02-25T07:33:46.683Z,6.10
2023-02-25T07:36:14.657Z,6.20
2023-02-25T07:38:41.989Z,6.30
2023-02-25T07:41:11.648Z,6.40
2023-02-25T07:43:38.729Z,6.40
2023-02-25T07:46:06.298Z,6.40
2023-02-25T07:48:33.505Z,6.40
2023-02-25T07:51:11.916Z,6.30
2023-02-25T07:53:39.309Z,6.30
2023-02-25T07:56:07.273Z,6.10
2023-02-25T07:58:35.132Z,5.90
2023-02-25T08:01:06.758Z,5.80
2023-02-25T08:03:33.493Z,5.80
2023-02-25T08:06:02.643Z,5.90
2023-02-25T08:08:29.492Z,6.10
2023-02-25T08:10:56.171Z,6.30
2023-02-25T08:13:22.934Z,6.50
2023-02-25T08:15:49.913Z,6.60
2023-02-25T08:18:16.620Z,6.60
2023-02-25T08:20:47.581Z,6.60
2023-02-25T08:23:14.388Z,6.50
2023-02-25T08:25:41.557Z,6.40
2023-02-25T08:28:08.270Z,6.40
2023-02-25T08:30:35.565Z,6.40
2023-02-25T08:33:02.562Z,6.50
2023-02-25T08:35:29.329Z,6.50
2023-02-25T08:37:56.447Z,6.60
2023-02-25T08:40:23.298Z,6.60
2023-02-25T08:42:50.212Z,6.60
2023-02-25T08:45:17.097Z,6.50
2023-02-25T08:47:43.913Z,6.50
2023-02-25T08:50:11.220Z,6.60
2023-02-25T08:52:38.881Z,6.70
2023-02-25T08:55:07.067Z,6.60
2023-02-25T08:57:33.898Z,6.60
2023-02-25T09:00:00.792Z,6.60
2023-02-25T09:02:27.673Z,6.60
2023-02-25T09:04:54.510Z,6.70
2023-02-25T09:07:22.058Z,6.80
2023-02-25T09:09:48.803Z,7.10
2023-02-25T09:12:15.567Z,6.90
2023-02-25T09:14:42.274Z,6.90
2023-02-25T09:17:09.626Z,7.00
2023-02-25T09:19:39.536Z,7.00
2023-02-25T09:22:07.407Z,7.10
2023-02-25T09:24:34.513Z,7.10
2023-02-25T09:27:07.732Z,7.20
2023-02-25T09:29:36.372Z,7.30
2023-02-25T09:32:04.023Z,7.40
2023-02-25T09:34:33.777Z,7.50
2023-02-25T09:37:06.528Z,7.60
2023-02-25T09:39:33.394Z,7.70
2023-02-25T09:42:09.573Z,7.80
2023-02-25T09:44:40.937Z,7.80
2023-02-25T09:47:22.956Z,8.10
2023-02-25T09:50:01.968Z,8.40
2023-02-25T09:52:41.153Z,8.80
2023-02-25T09:55:20.860Z,9.30
2023-02-25T09:58:08.853Z,9.80
2023-02-25T10:01:05.966Z,9.70
2023-02-25T10:03:53.257Z,9.50
2023-02-25T10:06:37.418Z,9.30
2023-02-25T10:09:37.468Z,8.90
2023-02-25T10:12:13.358Z,8.50
2023-02-25T10:15:11.843Z,8.20
2023-02-25T10:18:15.278Z,7.80
2023-02-25T10:20:57.491Z,7.40
2023-02-25T10:23:53.932Z,7.20
2023-02-25T10:26:32.479Z,7.10
2023-02-25T10:29:06.850Z,6.90
2023-02-25T10:31:34.577Z,7.10
2023-02-25T10:34:21.330Z,7.20
2023-02-25T10:36:54.612Z,7.50
2023-02-25T10:39:21.841Z,7.70
2023-02-25T10:41:49.381Z,7.90
2023-02-25T10:44:16.218Z,8.10
2023-02-25T10:46:54.215Z,8.10
2023-02-25T10:49:25.888Z,8.10
2023-02-25T10:52:05.980Z,8.10
2023-02-25T10:54:44.354Z,8.30
2023-02-25T10:57:16.135Z,8.30
2023-02-25T10:59:45.149Z,8.30
2023-02-25T11:02:28.321Z,8.20
2023-02-25T11:04:56.249Z,8.00
2023-02-25T11:07:24.556Z,7.90
2023-02-25T11:10:15.110Z,7.80
2023-02-25T11:12:53.678Z,7.90
2023-02-25T11:15:43.647Z,7.90
2023-02-25T11:18:29.467Z,7.80
2023-02-25T11:20:59.250Z,7.80
2023-02-25T11:23:39.789Z,7.70
2023-02-25T11:26:08.078Z,7.60
2023-02-25T11:28:46.136Z,7.60
2023-02-25T11:31:19.150Z,7.60
2023-02-25T11:33:59.016Z,7.50
2023-02-25T11:36:33.692Z,7.60
2023-02-25T11:39:08.386Z,7.70
2023-02-25T11:41:35.225Z,8.20
2023-02-25T11:44:45.591Z,8.80
2023-02-25T11:47:22.513Z,9.50
2023-02-25T11:50:17.708Z,9.70
2023-02-25T11:52:58.775Z,9.50
2023-02-25T11:55:39.792Z,9.20
2023-02-25T11:58:39.054Z,8.80
2023-02-25T12:01:43.416Z,8.40
2023-02-25T12:04:42.424Z,8.20
2023-02-25T12:07:33.412Z,7.90
2023-02-25T12:10:32.066Z,7.70
2023-02-25T12:13:41.554Z,7.90
2023-02-25T12:16:29.139Z,8.30
2023-02-25T12:19:16.584Z,8.70
2023-02-25T12:22:02.247Z,9.20
2023-02-25T12:25:07.135Z,9.60
2023-02-25T12:27:34.213Z,9.60
2023-02-25T12:30:10.659Z,9.30
2023-02-25T12:33:02.021Z,8.70
2023-02-25T12:35:53.777Z,8.40
2023-02-25T12:38:59.348Z,8.40
2023-02-25T12:41:39.640Z,8.80
2023-02-25T12:44:27.395Z,9.00
2023-02-25T12:47:17.822Z,9.00
2023-02-25T12:50:24.878Z,9.00
2023-02-25T12:53:09.541Z,9.10
2023-02-25T12:55:49.326Z,9.40
2023-02-25T12:58:54.639Z,9.50
2023-02-25T13:01:40.227Z,9.40
2023-02-25T13:04:34.387Z,9.30
2023-02-25T13:07:07.177Z,9.40
2023-02-25T13:09:43.201Z,9.30
2023-02-25T13:12:23.078Z,9.40
2023-02-25T13:15:11.903Z,9.50
2023-02-25T13:18:16.638Z,9.50
2023-02-25T13:21:07.852Z,9.40
2023-02-25T13:24:02.869Z,9.20
2023-02-25T13:26:59.020Z,9.00
2023-02-25T13:29:34.653Z,9.10
2023-02-25T13:32:04.626Z,9.40
2023-02-25T13:35:09.311Z,9.80
2023-02-25T13:37:37.875Z,9.90
2023-02-25T13:40:32.478Z,9.30
2023-02-25T13:43:27.367Z,8.60
2023-02-25T13:46:34.814Z,7.90
2023-02-25T13:49:29.764Z,7.40
2023-02-25T13:52:30.009Z,7.20
2023-02-25T13:55:29.057Z,7.20
2023-02-25T13:58:02.275Z,7.30
2023-02-25T14:00:46.479Z,7.40
2023-02-25T14:03:34.379Z,7.70
2023-02-25T14:06:23.047Z,7.80
2023-02-25T14:08:53.010Z,7.80
2023-02-25T14:11:51.331Z,7.70
2023-02-25T14:15:06.123Z,7.70
2023-02-25T14:17:44.356Z,7.90
2023-02-25T14:20:48.580Z,8.20
2023-02-25T14:23:33.853Z,8.90
2023-02-25T14:26:26.304Z,9.70
2023-02-25T14:29:20.297Z,10.00
2023-02-25T14:32:18.008Z,10.90
2023-02-25T14:35:09.123Z,11.50
2023-02-25T14:37:50.256Z,11.80
2023-02-25T14:40:33.115Z,12.10
2023-02-25T14:43:01.788Z,12.60
2023-02-25T14:45:35.685Z,13.10
2023-02-25T14:48:11.849Z,13.10
2023-02-25T14:51:07.713Z,13.30
2023-02-25T14:53:59.104Z,13.50
2023-02-25T14:56:58.500Z,13.70
2023-02-25T14:59:45.793Z,13.50
2023-02-25T15:02:45.775Z,12.30
2023-02-25T15:05:38.446Z,11.60
2023-02-25T15:08:23.751Z,11.50
2023-02-25T15:11:11.717Z,11.30
2023-02-25T15:14:17.331Z,11.70
2023-02-25T15:17:06.795Z,12.50
2023-02-25T15:20:09.742Z,12.20
2023-02-25T15:22:41.745Z,12.30
2023-02-25T15:25:20.690Z,12.10
2023-02-25T15:27:53.945Z,11.50
2023-02-25T15:30:24.511Z,10.30
2023-02-25T15:32:57.690Z,9.60
2023-02-25T15:35:36.593Z,9.20
2023-02-25T15:38:07.055Z,8.90
2023-02-25T15:40:33.865Z,8.80
2023-02-25T15:43:16.383Z,8.70
2023-02-25T15:46:19.897Z,8.50
2023-02-25T15:49:13.774Z,8.40
2023-02-25T15:52:00.292Z,8.30
2023-02-25T15:54:31.818Z,8.30
2023-02-25T15:57:11.131Z,8.10
2023-02-25T15:59:55.334Z,7.90
2023-02-25T16:02:34.959Z,7.70
2023-02-25T16:05:08.506Z,7.50
2023-02-25T16:08:02.486Z,7.40
2023-02-25T16:10:43.460Z,7.30
2023-02-25T16:13:22.652Z,7.20
2023-02-25T16:15:53.512Z,7.20
2023-02-25T16:18:36.792Z,7.20
2023-02-25T16:21:13.851Z,7.10
2023-02-25T16:23:42.965Z,7.10
2023-02-25T16:26:28.372Z,7.00
2023-02-25T16:29:19.711Z,7.00
2023-02-25T16:31:55.831Z,7.00
2023-02-25T16:34:46.431Z,6.90
2023-02-25T16:38:02.617Z,6.90
2023-02-25T16:40:36.562Z,6.80
2023-02-25T16:43:04.235Z,6.80
2023-02-25T16:45:38.476Z,6.70
2023-02-25T16:48:13.669Z,6.70
2023-02-25T16:50:44.520Z,6.60
2023-02-25T16:53:21.305Z,6.50
2023-02-25T16:55:48.214Z,6.50
2023-02-25T16:58:19.279Z,6.50
2023-02-25T17:00:54.980Z,6.50
2023-02-25T17:03:25.032Z,6.40
2023-02-25T17:06:04.089Z,6.40
2023-02-25T17:08:30.931Z,6.30
2023-02-25T17:11:01.257Z,6.30
2023-02-25T17:13:40.162Z,6.30
2023-02-25T17:16:16.472Z,6.20
2023-02-25T17:18:56.303Z,6.20
2023-02-25T17:21:33.674Z,6.10
2023-02-25T17:24:02.923Z,6.00
2023-02-25T17:26:30.809Z,6.00
2023-02-25T17:29:00.103Z,5.90
2023-02-25T17:31:29.680Z,5.90
2023-02-25T17:34:05.161Z,5.90
2023-02-25T17:36:40.902Z,5.90
2023-02-25T17:39:15.618Z,5.80
2023-02-25T17:41:43.531Z,5.80
2023-02-25T17:44:39.098Z,5.70
2023-02-25T17:47:09.109Z,5.70
2023-02-25T17:49:37.660Z,5.60
2023-02-25T17:52:18.271Z,5.60
2023-02-25T17:54:57.006Z,5.50
2023-02-25T17:57:26.139Z,5.50
2023-02-25T17:59:56.783Z,5.50
2023-02-25T18:02:33.680Z,5.40
2023-02-25T18:05:12.635Z,5.40
2023-02-25T18:07:57.634Z,5.30
2023-02-25T18:10:33.258Z,5.30
2023-02-25T18:13:02.467Z,5.30
2023-02-25T18:15:33.400Z,5.30
2023-02-25T18:18:04.463Z,5.30
2023-02-25T18:20:37.905Z,5.20
2023-02-25T18:23:13.824Z,5.20
2023-02-25T18:25:43.309Z,5.10
2023-02-25T18:28:18.750Z,5.10
2023-02-25T18:30:46.586Z,5.10
2023-02-25T18:33:13.691Z,5.00
2023-02-25T18:35:42.937Z,5.00
2023-02-25T18:38:16.782Z,5.00
2023-02-25T18:40:43.597Z,4.90
2023-02-25T18:43:16.524Z,4.90
2023-02-25T18:45:43.676Z,4.90
2023-02-25T18:48:10.581Z,4.90
2023-02-25T18:50:40.392Z,4.80
2023-02-25T18:53:11.472Z,4.80
2023-02-25T18:55:38.214Z,4.80
2023-02-25T18:58:04.968Z,4.70
2023-02-25T19:00:31.834Z,4.70
2023-02-25T19:03:02.482Z,4.70
2023-02-25T19:05:29.784Z,4.50
2023-02-25T19:07:57.270Z,4.70
2023-02-25T19:10:30.388Z,4.60
2023-02-25T19:13:11.551Z,4.60
2023-02-25T19:15:38.471Z,4.60
2023-02-25T19:18:06.424Z,4.60
2023-02-25T19:20:33.202Z,4.60
2023-02-25T19:22:59.973Z,4.50
2023-02-25T19:25:31.785Z,4.50
2023-02-25T19:27:58.881Z,4.50
2023-02-25T19:30:29.274Z,4.50
2023-02-25T19:32:59.450Z,4.40
2023-02-25T19:35:30.659Z,4.30
2023-02-25T19:37:58.190Z,4.30
2023-02-25T19:40:25.561Z,4.30
2023-02-25T19:42:52.910Z,4.30
2023-02-25T19:45:21.540Z,4.30
2023-02-25T19:47:49.668Z,4.20
2023-02-25T19:50:17.996Z,4.20
2023-02-25T19:52:45.193Z,4.20
2023-02-25T19:55:13.187Z,4.30
2023-02-25T19:57:40.719Z,4.20
2023-02-25T20:00:11.047Z,4.20
2023-02-25T20:02:41.402Z,4.20
2023-02-25T20:05:08.955Z,4.10
2023-02-25T20:07:36.012Z,4.10
2023-02-25T20:10:02.753Z,4.00
2023-02-25T20:12:29.519Z,4.00
2023-02-25T20:14:57.050Z,4.00
2023-02-25T20:17:25.804Z,4.00
2023-02-25T20:19:52.841Z,4.00
2023-02-25T20:22:23.556Z,3.90
2023-02-25T20:24:51.176Z,3.90
2023-02-25T20:27:18.154Z,3.90
2023-02-25T20:29:44.995Z,3.90
2023-02-25T20:32:11.897Z,3.80
2023-02-25T20:34:38.923Z,3.80
2023-02-25T20:37:22.362Z,3.80
2023-02-25T20:39:50.879Z,3.80
2023-02-25T20:42:22.444Z,3.80
2023-02-25T20:44:51.559Z,3.80
2023-02-25T20:47:24.721Z,3.70
2023-02-25T20:49:53.053Z,3.70
2023-02-25T20:52:20.594Z,3.80
2023-02-25T20:54:48.736Z,3.70
2023-02-25T20:57:18.692Z,3.70
2023-02-25T20:59:45.473Z,3.60
2023-02-25T21:02:12.522Z,3.60
2023-02-25T21:04:39.301Z,3.60
2023-02-25T21:07:06.953Z,3.60
2023-02-25T21:09:34.425Z,3.50
2023-02-25T21:12:01.632Z,3.60
2023-02-25T21:14:28.398Z,3.60
2023-02-25T21:16:55.485Z,3.60
2023-02-25T21:19:23.583Z,3.50
2023-02-25T21:21:51.627Z,3.50
2023-02-25T21:24:19.112Z,3.40
2023-02-25T21:26:46.790Z,3.40
2023-02-25T21:29:14.596Z,3.40
2023-02-25T21:31:41.909Z,3.40
2023-02-25T21:34:11.638Z,3.50
2023-02-25T21:36:39.026Z,3.40
2023-02-25T21:39:06.805Z,3.40
2023-02-25T21:41:33.582Z,3.40
2023-02-25T21:44:00.258Z,3.40
2023-02-25T21:46:27.610Z,3.40
2023-02-25T21:48:55.979Z,3.50
2023-02-25T21:51:25.331Z,3.40
2023-02-25T21:53:57.504Z,3.40
2023-02-25T21:56:25.973Z,3.40
2023-02-25T21:58:58.123Z,3.30
2023-02-25T22:01:31.412Z,3.30
2023-02-25T22:04:01.446Z,3.30
2023-02-25T22:06:31.438Z,3.20
2023-02-25T22:08:59.196Z,3.30
2023-02-25T22:11:32.726Z,3.30
2023-02-25T22:14:00.198Z,3.30
2023-02-25T22:16:27.953Z,3.30
2023-02-25T22:18:55.976Z,3.30
2023-02-25T22:21:25.669Z,3.30
2023-02-25T22:23:54.952Z,3.30
2023-02-25T22:26:25.358Z,3.30
2023-02-25T22:29:10.416Z,3.20
2023-02-25T22:31:37.421Z,3.20
2023-02-25T22:34:05.670Z,3.20
2023-02-25T22:36:32.571Z,3.20
2023-02-25T22:38:59.609Z,3.20
2023-02-25T22:41:32.088Z,3.10
2023-02-25T22:43:59.498Z,3.10
2023-02-25T22:46:31.746Z,3.10
2023-02-25T22:48:59.397Z,3.00
2023-02-25T22:51:29.257Z,3.10
2023-02-25T22:53:57.175Z,3.00
2023-02-25T22:56:24.693Z,3.10
2023-02-25T22:58:52.151Z,3.00
2023-02-25T23:01:20.960Z,3.00
2023-02-25T23:03:50.582Z,3.00
2023-02-25T23:06:20.250Z,2.90
2023-02-25T23:08:47.220Z,2.90
2023-02-25T23:11:26.944Z,2.90
2023-02-25T23:13:58.260Z,2.90
2023-02-25T23:16:35.626Z,2.90
2023-02-25T23:19:04.658Z,2.90
2023-02-25T23:21:33.156Z,2.90
2023-02-25T23:24:02.048Z,2.90
2023-02-25T23:26:35.497Z,2.90
2023-02-25T23:29:05.629Z,2.90
2023-02-25T23:31:36.404Z,2.90
2023-02-25T23:34:10.576Z,2.80
2023-02-25T23:36:41.882Z,2.80
2023-02-25T23:39:11.444Z,2.80
2023-02-25T23:41:38.467Z,2.90
2023-02-25T23:44:08.402Z,2.80
2023-02-25T23:46:36.271Z,2.80
2023-02-25T23:49:07.147Z,2.80
2023-02-25T23:51:36.263Z,2.80
2023-02-25T23:54:06.081Z,2.70
2023-02-25T23:56:33.573Z,2.70
2023-02-25T23:59:01.351Z,2.70
